Hodges, South Carolina
Current Conditions -  °F | °C
As of 10:12 AM on Monday 22 Dec 2014 (Local Time) from KGRD Reporting Station
Haze Haze  
Wind Chill: 37°   Ceiling: 500
Heat Index: 43°   Visibility: 3mi
Dew Point: 41°   Wind: 12mph
Humidity: 93%   Direction: 50°NE
Pressure: 30.11"   Gusts: NA
Location:  34.29°N, 82.25°W
Report Text: KGRD 221512Z AUTO 05010KT 3SM BR OVC005 06/05 A3011 RMK AO2 CIG 003V009 T00610050
Loading
Personal Weather Stations






























Interactive Weather Map New forecast layout! Learn more

10-Day Weather Forecast

Advertisements
Track Severe Weather on mobile